Terminal Aerodrome Forecast
Issued by NWS Paducah, KY

Home | Current Version | Previous Version | Text Only | Print | Product List | Glossary Off
Versions: 1 2 3 4 5 6 7 8 9 10 11 12 13 14

000
FTUS43 KPAH 020759 AAA
TAFEVV
TAF AMD
KEVV 020759Z 0208/0306 00000KT 3SM BR SCT200
      TEMPO 0208/0212 1SM BR SKC
     FM021400 VRB04KT P6SM SCT040
     FM030100 00000KT P6SM SKC=

USA.gov is the U.S. government's official web portal to all federal, state and local government web resources and services.